createdAt,value
2022-08-14T00:01:11.414Z,100887.00
2022-08-14T00:03:44.210Z,100891.09
2022-08-14T00:06:25.782Z,100893.00
2022-08-14T00:09:01.083Z,100891.91
2022-08-14T00:11:33.399Z,100892.19
2022-08-14T00:14:05.093Z,100886.25
2022-08-14T00:16:40.606Z,100891.97
2022-08-14T00:19:18.599Z,100886.53
2022-08-14T00:21:51.706Z,100891.09
2022-08-14T00:24:28.880Z,100887.59
2022-08-14T00:27:02.871Z,100884.88
2022-08-14T00:29:40.668Z,100885.97
2022-08-14T00:32:52.399Z,100887.59
2022-08-14T00:35:06.111Z,100883.50
2022-08-14T00:37:40.808Z,100882.69
2022-08-14T00:40:27.420Z,100879.47
2022-08-14T00:43:05.656Z,100881.94
2022-08-14T00:45:37.298Z,100885.19
2022-08-14T00:48:10.777Z,100880.59
2022-08-14T00:50:42.287Z,100878.69
2022-08-14T00:53:16.897Z,100876.53
2022-08-14T00:55:49.264Z,100873.53
2022-08-14T00:58:33.815Z,100867.31
2022-08-14T01:01:05.377Z,100871.41
2022-08-14T01:03:42.312Z,100866.81
2022-08-14T01:06:18.662Z,100870.91
2022-08-14T01:08:58.224Z,100861.19
2022-08-14T01:11:31.710Z,100865.56
2022-08-14T01:14:25.596Z,100865.31
2022-08-14T01:16:59.873Z,100865.06
2022-08-14T01:19:50.897Z,100864.81
2022-08-14T01:22:26.707Z,100860.75
2022-08-14T01:24:58.800Z,100861.31
2022-08-14T01:27:30.320Z,100860.81
2022-08-14T01:30:08.519Z,100863.25
2022-08-14T01:32:42.467Z,100858.13
2022-08-14T01:35:20.850Z,100859.75
2022-08-14T01:38:06.465Z,100860.56
2022-08-14T01:40:41.671Z,100866.50
2022-08-14T01:43:14.850Z,100858.91
2022-08-14T01:46:06.138Z,100856.22
2022-08-14T01:48:38.932Z,100857.81
2022-08-14T01:51:19.503Z,100857.81
2022-08-14T01:53:55.398Z,100854.31
2022-08-14T01:56:37.292Z,100854.84
2022-08-14T01:59:18.167Z,100859.41
2022-08-14T02:01:58.724Z,100850.72
2022-08-14T02:04:55.839Z,100856.41
2022-08-14T02:07:34.545Z,100859.66
2022-08-14T02:10:15.855Z,100854.25
2022-08-14T02:12:48.875Z,100852.06
2022-08-14T02:15:26.154Z,100845.56
2022-08-14T02:18:01.785Z,100843.66
2022-08-14T02:20:34.094Z,100843.38
2022-08-14T02:23:08.358Z,100853.94
2022-08-14T02:25:40.601Z,100849.88
2022-08-14T02:28:24.092Z,100842.84
2022-08-14T02:31:04.047Z,100845.03
2022-08-14T02:33:42.049Z,100848.28
2022-08-14T02:37:03.486Z,100840.69
2022-08-14T02:39:05.596Z,100842.56
2022-08-14T02:41:39.981Z,100838.25
2022-08-14T02:44:21.664Z,100835.25
2022-08-14T02:47:01.789Z,100839.59
2022-08-14T02:49:34.144Z,100830.66
2022-08-14T02:52:56.596Z,100837.97
2022-08-14T02:54:59.364Z,100823.88
2022-08-14T02:57:39.325Z,100820.88
2022-08-14T03:00:18.597Z,100826.28
2022-08-14T03:02:59.006Z,100824.69
2022-08-14T03:05:36.135Z,100821.69
2022-08-14T03:08:08.976Z,100817.09
2022-08-14T03:10:42.053Z,100820.06
2022-08-14T03:13:22.026Z,100821.97
2022-08-14T03:15:57.787Z,100817.38
2022-08-14T03:18:30.532Z,100812.22
2022-08-14T03:21:03.763Z,100818.97
2022-08-14T03:23:38.190Z,100808.44
2022-08-14T03:26:12.895Z,100815.75
2022-08-14T03:28:50.316Z,100810.63
2022-08-14T03:31:26.057Z,100808.44
2022-08-14T03:34:00.573Z,100813.03
2022-08-14T03:37:50.922Z,100813.31
2022-08-14T03:39:27.591Z,100811.94
2022-08-14T03:42:00.044Z,100810.34
2022-08-14T03:45:27.449Z,100801.94
2022-08-14T03:47:46.039Z,100808.16
2022-08-14T03:50:30.744Z,100811.44
2022-08-14T03:53:03.264Z,100813.03
2022-08-14T03:55:34.963Z,100807.63
2022-08-14T03:58:07.143Z,100800.03
2022-08-14T04:00:43.933Z,100795.44
2022-08-14T04:03:24.169Z,100791.91
2022-08-14T04:05:56.769Z,100794.63
2022-08-14T04:08:31.835Z,100795.16
2022-08-14T04:11:07.955Z,100795.16
2022-08-14T04:13:42.589Z,100791.34
2022-08-14T04:16:14.097Z,100782.13
2022-08-14T04:18:46.640Z,100785.09
2022-08-14T04:21:18.156Z,100794.00
2022-08-14T04:23:57.239Z,100792.41
2022-08-14T04:26:42.902Z,100793.44
2022-08-14T04:29:16.279Z,100796.91
2022-08-14T04:32:59.927Z,100796.66
2022-08-14T04:34:42.770Z,100796.59
2022-08-14T04:37:42.342Z,100793.28
2022-08-14T04:40:32.775Z,100798.06
2022-08-14T04:43:38.471Z,100797.75
2022-08-14T04:46:55.334Z,100794.22
2022-08-14T04:49:02.953Z,100791.47
2022-08-14T04:51:55.447Z,100790.88
2022-08-14T04:54:28.284Z,100790.22
2022-08-14T04:56:59.811Z,100789.31
2022-08-14T04:59:31.676Z,100782.44
2022-08-14T05:02:04.130Z,100786.16
2022-08-14T05:04:39.931Z,100781.97
2022-08-14T05:07:16.937Z,100780.44
2022-08-14T05:09:50.000Z,100777.56
2022-08-14T05:13:10.989Z,100777.03
2022-08-14T05:15:13.697Z,100782.78
2022-08-14T05:17:58.747Z,100776.84
2022-08-14T05:21:59.529Z,100775.75
2022-08-14T05:23:29.011Z,100777.81
2022-08-14T05:26:02.004Z,100773.34
2022-08-14T05:28:33.913Z,100775.28
2022-08-14T05:31:08.564Z,100769.84
2022-08-14T05:33:41.050Z,100768.16
2022-08-14T05:36:16.708Z,100764.63
2022-08-14T05:38:48.975Z,100762.81
2022-08-14T05:41:21.830Z,100765.91
2022-08-14T05:43:54.002Z,100757.38
2022-08-14T05:46:25.996Z,100761.22
2022-08-14T05:48:57.821Z,100759.28
2022-08-14T05:51:30.588Z,100761.13
2022-08-14T05:54:13.566Z,100752.75
2022-08-14T05:56:48.307Z,100759.06
2022-08-14T05:59:20.214Z,100746.75
2022-08-14T06:02:07.875Z,100751.03
2022-08-14T06:04:49.517Z,100743.38
2022-08-14T06:07:21.123Z,100743.75
2022-08-14T06:09:53.413Z,100743.59
2022-08-14T06:12:31.444Z,100731.28
2022-08-14T06:15:16.967Z,100730.34
2022-08-14T06:17:58.489Z,100728.72
2022-08-14T06:20:31.416Z,100723.41
2022-08-14T06:23:06.084Z,100715.53
2022-08-14T06:25:37.607Z,100714.28
2022-08-14T06:28:28.049Z,100717.94
2022-08-14T06:31:00.074Z,100718.09
2022-08-14T06:35:04.565Z,100719.25
2022-08-14T06:36:23.758Z,100712.34
2022-08-14T06:38:56.044Z,100717.81
2022-08-14T06:41:56.676Z,100722.94
2022-08-14T06:44:20.428Z,100730.44
2022-08-14T06:47:02.899Z,100734.38
2022-08-14T06:49:40.075Z,100735.47
2022-08-14T06:52:16.364Z,100736.94
2022-08-14T06:54:48.530Z,100740.94
2022-08-14T06:57:21.611Z,100731.19
2022-08-14T06:59:53.634Z,100728.03
2022-08-14T07:02:46.762Z,100722.50
2022-08-14T07:05:37.983Z,100715.59
2022-08-14T07:08:29.502Z,100711.09
2022-08-14T07:11:04.262Z,100713.41
2022-08-14T07:13:36.364Z,100704.78
2022-08-14T07:16:07.943Z,100708.25
2022-08-14T07:18:40.749Z,100698.91
2022-08-14T07:21:12.404Z,100706.97
2022-08-14T07:23:44.183Z,100699.16
2022-08-14T07:26:16.929Z,100698.88
2022-08-14T07:28:49.410Z,100700.09
2022-08-14T07:31:20.946Z,100696.88
2022-08-14T07:33:53.550Z,100700.47
2022-08-14T07:36:26.377Z,100697.72
2022-08-14T07:39:00.272Z,100698.34
2022-08-14T07:41:33.823Z,100696.09
2022-08-14T07:44:32.418Z,100695.56
2022-08-14T07:46:59.001Z,100690.09
2022-08-14T07:49:30.846Z,100684.00
2022-08-14T07:52:03.396Z,100681.22
2022-08-14T07:54:35.249Z,100678.03
2022-08-14T07:57:12.063Z,100685.81
2022-08-14T07:59:47.117Z,100680.16
2022-08-14T08:02:21.973Z,100680.69
2022-08-14T08:04:59.223Z,100675.03
2022-08-14T08:07:32.385Z,100678.59
2022-08-14T08:10:46.715Z,100670.06
2022-08-14T08:13:16.190Z,100663.56
2022-08-14T08:15:47.740Z,100665.69
2022-08-14T08:18:20.438Z,100657.63
2022-08-14T08:21:00.694Z,100662.56
2022-08-14T08:23:40.495Z,100656.13
2022-08-14T08:26:15.896Z,100657.38
2022-08-14T08:28:49.724Z,100649.66
2022-08-14T08:31:21.238Z,100642.81
2022-08-14T08:33:53.101Z,100637.59
2022-08-14T08:36:25.845Z,100649.38
2022-08-14T08:39:14.586Z,100651.84
2022-08-14T08:41:53.518Z,100649.59
2022-08-14T08:44:32.703Z,100639.81
2022-08-14T08:47:07.700Z,100629.41
2022-08-14T08:49:43.247Z,100627.13
2022-08-14T08:52:24.970Z,100629.47
2022-08-14T08:55:04.846Z,100626.72
2022-08-14T08:57:38.189Z,100624.00
2022-08-14T09:00:24.643Z,100626.44
2022-08-14T09:02:57.934Z,100608.38
2022-08-14T09:05:29.467Z,100612.25
2022-08-14T09:08:03.466Z,100610.19
2022-08-14T09:10:56.341Z,100609.44
2022-08-14T09:13:30.757Z,100604.34
2022-08-14T09:16:19.115Z,100612.75
2022-08-14T09:18:53.348Z,100603.09
2022-08-14T09:21:31.246Z,100602.03
2022-08-14T09:24:28.156Z,100611.91
2022-08-14T09:26:55.299Z,100596.63
2022-08-14T09:29:28.960Z,100604.59
2022-08-14T09:32:03.714Z,100602.94
2022-08-14T09:34:58.808Z,100607.19
2022-08-14T09:37:31.692Z,100596.25
2022-08-14T09:40:04.890Z,100595.44
2022-08-14T09:42:49.761Z,100591.81
2022-08-14T09:45:23.783Z,100589.50
2022-08-14T09:47:55.726Z,100578.09
2022-08-14T09:50:28.370Z,100580.06
2022-08-14T09:53:03.803Z,100573.38
2022-08-14T09:55:42.621Z,100571.41
2022-08-14T09:58:14.877Z,100577.50
2022-08-14T10:00:52.768Z,100559.13
2022-08-14T10:03:24.809Z,100560.34
2022-08-14T10:06:06.621Z,100554.81
2022-08-14T10:08:40.340Z,100551.72
2022-08-14T10:11:12.188Z,100554.34
2022-08-14T10:13:53.199Z,100546.47
2022-08-14T10:16:27.286Z,100531.22
2022-08-14T10:19:07.277Z,100521.97
2022-08-14T10:21:58.458Z,100528.69
2022-08-14T10:24:37.002Z,100524.94
2022-08-14T10:27:09.410Z,100519.63
2022-08-14T10:29:40.975Z,100507.72
2022-08-14T10:32:17.433Z,100506.00
2022-08-14T10:34:52.860Z,100501.72
2022-08-14T10:37:27.785Z,100494.41
2022-08-14T10:40:01.677Z,100493.19
2022-08-14T10:42:38.006Z,100487.72
2022-08-14T10:45:09.736Z,100473.13
2022-08-14T10:48:08.576Z,100474.00
2022-08-14T10:50:33.099Z,100474.78
2022-08-14T10:53:07.966Z,100466.19
2022-08-14T10:55:45.054Z,100455.41
2022-08-14T10:58:17.846Z,100459.47
2022-08-14T11:00:49.473Z,100458.44
2022-08-14T11:03:55.376Z,100450.56
2022-08-14T11:06:20.392Z,100463.22
2022-08-14T11:08:52.904Z,100452.53
2022-08-14T11:11:35.734Z,100339.28
2022-08-14T11:14:09.522Z,100441.91
2022-08-14T11:16:41.706Z,100447.84
2022-08-14T11:19:25.329Z,100443.00
2022-08-14T11:21:58.215Z,100441.06
2022-08-14T11:24:54.270Z,100440.31
2022-08-14T11:27:27.071Z,100441.06
2022-08-14T11:30:51.714Z,100439.47
2022-08-14T11:32:57.561Z,100436.75
2022-08-14T11:35:44.272Z,100441.09
2022-08-14T11:38:21.659Z,100441.53
2022-08-14T11:40:53.255Z,100431.47
2022-08-14T11:43:29.550Z,100436.38
2022-08-14T11:46:03.730Z,100430.81
2022-08-14T11:48:59.598Z,100429.63
2022-08-14T11:51:30.372Z,100424.88
2022-08-14T11:54:03.318Z,100420.53
2022-08-14T11:56:35.702Z,100422.88
2022-08-14T11:59:10.291Z,100418.13
2022-08-14T12:01:42.654Z,100418.06
2022-08-14T12:04:21.777Z,100419.56
2022-08-14T12:07:05.464Z,100411.81
2022-08-14T12:09:38.044Z,100409.00
2022-08-14T12:12:10.877Z,100408.56
2022-08-14T12:14:44.370Z,100396.69
2022-08-14T12:17:23.952Z,100397.53
2022-08-14T12:19:56.489Z,100386.44
2022-08-14T12:22:29.697Z,100386.00
2022-08-14T12:25:04.130Z,100385.41
2022-08-14T12:27:41.581Z,100382.84
2022-08-14T12:30:20.839Z,100391.19
2022-08-14T12:32:53.359Z,100383.31
2022-08-14T12:35:25.022Z,100378.44
2022-08-14T12:37:56.906Z,100364.69
2022-08-14T12:40:31.656Z,100360.31
2022-08-14T12:43:03.540Z,100359.09
2022-08-14T12:45:35.809Z,100355.50
2022-08-14T12:48:21.527Z,100361.88
2022-08-14T12:50:59.250Z,100353.09
2022-08-14T12:53:31.116Z,100350.16
2022-08-14T12:56:22.286Z,100349.66
2022-08-14T12:59:01.821Z,100337.22
2022-08-14T13:01:56.762Z,100335.75
2022-08-14T13:04:25.256Z,100327.06
2022-08-14T13:06:56.779Z,100315.59
2022-08-14T13:09:37.812Z,100327.88
2022-08-14T13:12:31.232Z,100323.50
2022-08-14T13:15:01.553Z,100317.97
2022-08-14T13:17:41.054Z,100310.41
2022-08-14T13:20:24.345Z,100300.03
2022-08-14T13:22:56.723Z,100300.94
2022-08-14T13:25:28.314Z,100294.94
2022-08-14T13:28:00.451Z,100284.03
2022-08-14T13:30:32.122Z,100293.00
2022-08-14T13:33:07.369Z,100284.75
2022-08-14T13:35:48.000Z,100273.19
2022-08-14T13:38:20.650Z,100276.38
2022-08-14T13:40:55.255Z,100265.91
2022-08-14T13:43:36.455Z,100261.94
2022-08-14T13:46:08.198Z,100255.69
2022-08-14T13:48:44.004Z,100243.28
2022-08-14T13:51:16.351Z,100243.56
2022-08-14T13:54:07.212Z,100244.66
2022-08-14T13:56:40.005Z,100246.16
2022-08-14T13:59:11.952Z,100243.72
2022-08-14T14:01:52.092Z,100240.41
2022-08-14T14:04:24.172Z,100240.16
2022-08-14T14:06:56.203Z,100222.63
2022-08-14T14:09:32.567Z,100218.66
2022-08-14T14:12:38.551Z,100217.41
2022-08-14T14:15:12.220Z,100218.94
2022-08-14T14:17:44.381Z,100204.72
2022-08-14T14:20:34.653Z,100206.50
2022-08-14T14:23:12.072Z,100191.31
2022-08-14T14:25:46.155Z,100188.63
2022-08-14T14:28:24.235Z,100186.31
2022-08-14T14:30:57.174Z,100191.97
2022-08-14T14:33:49.695Z,100193.19
2022-08-14T14:36:23.370Z,100191.72
2022-08-14T14:38:56.452Z,100193.81
2022-08-14T14:41:37.360Z,100053.34
2022-08-14T14:44:13.481Z,100180.78
2022-08-14T14:46:50.532Z,100179.72
2022-08-14T14:49:31.652Z,100175.53
2022-08-14T14:52:23.465Z,100175.00
2022-08-14T14:54:59.457Z,100172.25
2022-08-14T14:57:35.378Z,100167.34
2022-08-14T15:00:12.823Z,100175.41
2022-08-14T15:02:44.864Z,100166.44
2022-08-14T15:05:17.440Z,100167.84
2022-08-14T15:07:51.128Z,100158.44
2022-08-14T15:10:27.880Z,100162.44
2022-08-14T15:13:07.231Z,100156.09
2022-08-14T15:15:39.578Z,100155.41
2022-08-14T15:18:36.232Z,100157.94
2022-08-14T15:21:02.983Z,100161.94
2022-08-14T15:23:44.526Z,100153.56
2022-08-14T15:26:24.021Z,100164.31
2022-08-14T15:29:05.781Z,100152.03
2022-08-14T15:31:38.741Z,100152.59
2022-08-14T15:34:45.751Z,100150.59
2022-08-14T15:37:03.848Z,100150.84
2022-08-14T15:39:38.530Z,100151.84
2022-08-14T15:42:16.345Z,100137.50
2022-08-14T15:44:56.645Z,100137.34
2022-08-14T15:47:30.938Z,100143.78
2022-08-14T15:50:05.044Z,100138.78
2022-08-14T15:52:37.420Z,100137.41
2022-08-14T15:55:09.624Z,100141.34
2022-08-14T15:57:51.262Z,100135.91
2022-08-14T16:00:52.686Z,100131.88
2022-08-14T16:03:27.346Z,100129.56
2022-08-14T16:06:10.874Z,100122.91
2022-08-14T16:08:50.287Z,100122.53
2022-08-14T16:11:33.244Z,100114.88
2022-08-14T16:14:06.817Z,100115.66
2022-08-14T16:16:51.618Z,100113.25
2022-08-14T16:19:32.035Z,100108.50
2022-08-14T16:22:58.883Z,100100.06
2022-08-14T16:25:02.485Z,100104.38
2022-08-14T16:27:39.620Z,100090.94
2022-08-14T16:30:24.920Z,100089.28
2022-08-14T16:33:02.053Z,100089.16
2022-08-14T16:35:42.942Z,100079.06
2022-08-14T16:38:45.395Z,100073.91
2022-08-14T16:41:29.464Z,100080.88
2022-08-14T16:44:01.652Z,100076.13
2022-08-14T16:46:34.681Z,100074.78
2022-08-14T16:49:07.340Z,100075.78
2022-08-14T16:51:39.529Z,100076.59
2022-08-14T16:54:34.323Z,100069.03
2022-08-14T16:57:05.084Z,100071.66
2022-08-14T16:59:52.180Z,100072.31
2022-08-14T17:02:27.321Z,100075.38
2022-08-14T17:04:59.495Z,100067.91
2022-08-14T17:07:31.573Z,100069.94
2022-08-14T17:10:09.814Z,100067.41
2022-08-14T17:12:43.992Z,100056.72
2022-08-14T17:15:16.781Z,100064.97
2022-08-14T17:17:57.812Z,100061.19
2022-08-14T17:20:39.802Z,100068.50
2022-08-14T17:23:21.448Z,100057.09
2022-08-14T17:26:01.679Z,100060.56
2022-08-14T17:31:25.418Z,100047.78
2022-08-14T17:34:18.699Z,100047.28
2022-08-14T17:36:52.599Z,100046.69
2022-08-14T17:39:24.202Z,100051.28
2022-08-14T17:42:02.783Z,100045.34
2022-08-14T17:44:45.666Z,100049.44
2022-08-14T17:47:17.855Z,100053.56
2022-08-14T17:49:51.670Z,100043.63
2022-08-14T17:52:34.474Z,100050.28
2022-08-14T17:55:07.533Z,100046.19
2022-08-14T17:57:41.008Z,100049.22
2022-08-14T18:00:14.677Z,100053.78
2022-08-14T18:02:50.502Z,100058.06
2022-08-14T18:06:07.676Z,100053.72
2022-08-14T18:08:32.643Z,100053.19
2022-08-14T18:11:06.992Z,100060.94
2022-08-14T18:13:51.731Z,100065.94
2022-08-14T18:16:24.228Z,100065.41
2022-08-14T18:18:56.154Z,100080.25
2022-08-14T18:21:56.130Z,100079.75
2022-08-14T18:24:29.455Z,100073.25
2022-08-14T18:27:02.263Z,100080.19
2022-08-14T18:29:42.542Z,100088.09
2022-08-14T18:32:14.614Z,100095.91
2022-08-14T18:34:50.996Z,100098.75
2022-08-14T18:37:23.143Z,100105.50
2022-08-14T18:40:03.541Z,100107.38
2022-08-14T18:42:36.318Z,100108.13
2022-08-14T18:45:12.707Z,100108.28
2022-08-14T18:50:39.553Z,100113.78
2022-08-14T18:53:12.902Z,100109.44
2022-08-14T18:55:53.124Z,100115.38
2022-08-14T18:58:30.932Z,100107.75
2022-08-14T19:01:04.512Z,100113.72
2022-08-14T19:03:37.866Z,100108.13
2022-08-14T19:06:09.865Z,100113.31
2022-08-14T19:08:41.790Z,100111.59
2022-08-14T19:11:13.518Z,100112.28
2022-08-14T19:13:51.005Z,100118.88
2022-08-14T19:16:26.520Z,100125.03
2022-08-14T19:19:00.378Z,100124.59
2022-08-14T19:21:33.066Z,100132.44
2022-08-14T19:24:04.593Z,100124.13
2022-08-14T19:26:56.599Z,100122.66
2022-08-14T19:29:37.800Z,100132.34
2022-08-14T19:32:13.045Z,100116.75
2022-08-14T19:34:52.780Z,100124.16
2022-08-14T19:37:24.882Z,100129.97
2022-08-14T19:40:10.999Z,100124.59
2022-08-14T19:42:47.335Z,100115.94
2022-08-14T19:45:20.478Z,100120.16
2022-08-14T19:47:57.856Z,100121.31
2022-08-14T19:50:38.869Z,100114.09
2022-08-14T19:53:17.558Z,100107.03
2022-08-14T19:55:49.990Z,100112.16
2022-08-14T19:58:27.998Z,100112.06
2022-08-14T20:01:01.751Z,100110.22
2022-08-14T20:03:59.172Z,100107.03
2022-08-14T20:06:33.030Z,100110.00
2022-08-14T20:11:03.252Z,100101.69
2022-08-14T20:12:02.552Z,100108.31
2022-08-14T20:14:37.075Z,100105.13
2022-08-14T20:17:09.920Z,100102.72
2022-08-14T20:19:41.916Z,100104.56
2022-08-14T20:22:35.564Z,100106.59
2022-08-14T20:25:05.509Z,100102.47
2022-08-14T20:27:40.104Z,100103.16
2022-08-14T20:30:33.159Z,100092.31
2022-08-14T20:33:07.294Z,100100.28
2022-08-14T20:35:41.740Z,100091.03
2022-08-14T20:38:30.838Z,100101.06
2022-08-14T20:41:05.858Z,100099.88
2022-08-14T20:43:57.015Z,100102.47
2022-08-14T20:46:29.869Z,100097.44
2022-08-14T20:49:02.367Z,100105.50
2022-08-14T20:51:37.513Z,100095.59
2022-08-14T20:54:09.466Z,100102.88
2022-08-14T20:56:41.414Z,100098.44
2022-08-14T20:59:17.392Z,100088.34
2022-08-14T21:01:55.279Z,100091.41
2022-08-14T21:04:27.243Z,100091.59
2022-08-14T21:07:24.986Z,100097.41
2022-08-14T21:10:06.431Z,100089.41
2022-08-14T21:13:25.377Z,100093.28
2022-08-14T21:15:35.289Z,100092.50
2022-08-14T21:18:07.779Z,100097.56
2022-08-14T21:20:40.697Z,100100.78
2022-08-14T21:23:13.912Z,100100.31
2022-08-14T21:25:45.842Z,100093.00
2022-08-14T21:28:29.651Z,100091.88
2022-08-14T21:31:02.265Z,100087.22
2022-08-14T21:33:34.418Z,100078.38
2022-08-14T21:36:08.008Z,100083.84
2022-08-14T21:38:42.480Z,100088.63
2022-08-14T21:41:43.066Z,100087.03
2022-08-14T21:44:17.893Z,100088.50
2022-08-14T21:46:53.323Z,100082.22
2022-08-14T21:49:32.236Z,100085.63
2022-08-14T21:52:52.109Z,100082.91
2022-08-14T21:55:09.172Z,100084.03
2022-08-14T21:58:44.848Z,100076.97
2022-08-14T22:00:39.772Z,100078.31
2022-08-14T22:03:16.471Z,100082.63
2022-08-14T22:05:50.036Z,100082.16
2022-08-14T22:08:26.941Z,100078.97
2022-08-14T22:10:59.345Z,100069.88
2022-08-14T22:13:32.111Z,100076.78
2022-08-14T22:16:04.519Z,100075.03
2022-08-14T22:18:36.584Z,100072.63
2022-08-14T22:21:16.766Z,100072.78
2022-08-14T22:23:48.461Z,100078.13
2022-08-14T22:26:30.586Z,100079.25
2022-08-14T22:29:05.511Z,100074.44
2022-08-14T22:31:41.674Z,100078.50
2022-08-14T22:34:15.548Z,100083.69
2022-08-14T22:36:51.224Z,100074.91
2022-08-14T22:40:16.918Z,100072.50
2022-08-14T22:42:21.170Z,100062.41
2022-08-14T22:44:56.389Z,100067.25
2022-08-14T22:47:40.489Z,100065.53
2022-08-14T22:50:30.094Z,100068.28
2022-08-14T22:53:04.301Z,100059.19
2022-08-14T22:55:38.456Z,100051.97
2022-08-14T22:58:10.410Z,100057.25
2022-08-14T23:00:50.910Z,100057.13
2022-08-14T23:03:22.848Z,100055.69
2022-08-14T23:05:54.787Z,100053.59
2022-08-14T23:08:59.171Z,100056.50
2022-08-14T23:11:17.833Z,100054.75
2022-08-14T23:13:49.325Z,100056.22
2022-08-14T23:16:22.112Z,100056.06
2022-08-14T23:18:54.620Z,100059.75
2022-08-14T23:21:28.967Z,100052.56
2022-08-14T23:24:00.631Z,100049.72
2022-08-14T23:26:47.671Z,100050.81
2022-08-14T23:29:20.636Z,100052.09
2022-08-14T23:31:52.996Z,100046.50
2022-08-14T23:34:24.980Z,100049.06
2022-08-14T23:37:04.003Z,100058.22
2022-08-14T23:39:39.225Z,100048.91
2022-08-14T23:42:11.571Z,100049.09
2022-08-14T23:44:47.247Z,100046.53
2022-08-14T23:47:26.657Z,100042.81
2022-08-14T23:50:03.530Z,100051.16
2022-08-14T23:52:50.677Z,100044.44
2022-08-14T23:55:31.034Z,100038.84
2022-08-14T23:58:03.495Z,100045.56
